createdAt,value
2023-04-07T00:01:23.756Z,12.15
2023-04-07T00:03:53.025Z,14.15
2023-04-07T00:06:22.172Z,10.77
2023-04-07T00:08:51.304Z,9.95
2023-04-07T00:11:20.608Z,11.52
2023-04-07T00:13:49.564Z,10.52
2023-04-07T00:16:22.292Z,10.32
2023-04-07T00:18:51.327Z,13.45
2023-04-07T00:21:20.260Z,11.85
2023-04-07T00:23:49.297Z,14.45
2023-04-07T00:26:18.302Z,11.57
2023-04-07T00:28:49.254Z,12.65
2023-04-07T00:31:19.701Z,12.40
2023-04-07T00:33:49.540Z,10.60
2023-04-07T00:36:18.762Z,16.10
2023-04-07T00:38:50.196Z,16.90
2023-04-07T00:41:19.200Z,13.73
2023-04-07T00:43:48.313Z,10.57
2023-04-07T00:46:17.679Z,9.48
2023-04-07T00:48:48.472Z,9.93
2023-04-07T00:51:17.658Z,10.93
2023-04-07T00:53:46.715Z,13.57
2023-04-07T00:56:16.074Z,14.93
2023-04-07T00:58:45.340Z,14.50
2023-04-07T01:01:20.208Z,13.57
2023-04-07T01:03:58.483Z,15.18
2023-04-07T01:06:32.657Z,16.38
2023-04-07T01:09:08.790Z,14.07
2023-04-07T01:11:44.474Z,13.38
2023-04-07T01:14:20.792Z,11.57
2023-04-07T01:16:59.094Z,16.13
2023-04-07T01:19:37.807Z,14.65
2023-04-07T01:22:12.857Z,14.20
2023-04-07T01:25:01.400Z,11.35
2023-04-07T01:27:44.134Z,10.35
2023-04-07T01:30:16.981Z,9.63
2023-04-07T01:32:52.051Z,11.65
2023-04-07T01:35:25.182Z,9.75
2023-04-07T01:37:55.358Z,12.70
2023-04-07T01:40:25.363Z,10.70
2023-04-07T01:42:55.579Z,8.88
2023-04-07T01:45:27.860Z,9.40
2023-04-07T01:47:57.232Z,8.82
2023-04-07T01:50:27.406Z,11.18
2023-04-07T01:52:57.428Z,9.18
2023-04-07T01:55:27.032Z,10.68
2023-04-07T01:58:09.431Z,10.15
2023-04-07T02:00:43.484Z,11.48
2023-04-07T02:03:33.247Z,10.52
2023-04-07T02:06:08.524Z,16.80
2023-04-07T02:08:41.659Z,16.38
2023-04-07T02:11:12.850Z,11.60
2023-04-07T02:13:45.512Z,14.02
2023-04-07T02:16:18.407Z,14.23
2023-04-07T02:18:48.816Z,13.13
2023-04-07T02:21:19.482Z,11.05
2023-04-07T02:23:48.706Z,13.55
2023-04-07T02:26:17.952Z,12.68
2023-04-07T02:28:46.905Z,9.15
2023-04-07T02:31:17.336Z,8.57
2023-04-07T02:33:46.387Z,11.88
2023-04-07T02:36:15.403Z,10.32
2023-04-07T02:38:44.429Z,12.07
2023-04-07T02:41:13.465Z,13.93
2023-04-07T02:43:42.500Z,11.07
2023-04-07T02:46:12.061Z,9.77
2023-04-07T02:48:42.977Z,12.57
2023-04-07T02:51:12.363Z,9.80
2023-04-07T02:53:41.380Z,13.02
2023-04-07T02:56:10.910Z,8.88
2023-04-07T02:58:39.943Z,10.32
2023-04-07T03:01:09.606Z,10.68
2023-04-07T03:03:39.382Z,12.02
2023-04-07T03:06:15.705Z,8.25
2023-04-07T03:08:59.326Z,9.80
2023-04-07T03:11:28.434Z,10.52
2023-04-07T03:13:59.928Z,13.73
2023-04-07T03:16:30.727Z,9.80
2023-04-07T03:19:25.882Z,10.38
2023-04-07T03:21:56.757Z,13.43
2023-04-07T03:24:25.870Z,12.25
2023-04-07T03:26:55.061Z,10.25
2023-04-07T03:29:38.417Z,11.68
2023-04-07T03:32:10.595Z,14.60
2023-04-07T03:34:40.137Z,13.68
2023-04-07T03:37:10.894Z,11.73
2023-04-07T03:39:41.196Z,9.80
2023-04-07T03:42:32.465Z,11.10
2023-04-07T03:45:07.085Z,11.63
2023-04-07T03:47:38.514Z,12.35
2023-04-07T03:50:09.732Z,12.73
2023-04-07T03:52:49.714Z,10.57
2023-04-07T03:55:32.133Z,10.63
2023-04-07T03:58:10.454Z,14.40
2023-04-07T04:00:43.906Z,11.05
2023-04-07T04:03:14.680Z,16.13
2023-04-07T04:06:04.877Z,11.23
2023-04-07T04:08:37.785Z,13.98
2023-04-07T04:11:07.758Z,12.88
2023-04-07T04:13:47.217Z,12.30
2023-04-07T04:16:16.388Z,9.50
2023-04-07T04:18:46.614Z,12.23
2023-04-07T04:21:17.446Z,12.88
2023-04-07T04:23:49.764Z,18.65
2023-04-07T04:26:19.754Z,12.70
2023-04-07T04:28:48.909Z,9.52
2023-04-07T04:31:20.591Z,14.52
2023-04-07T04:33:49.687Z,13.65
2023-04-07T04:36:18.805Z,13.05
2023-04-07T04:38:50.653Z,11.77
2023-04-07T04:41:22.072Z,12.75
2023-04-07T04:43:52.897Z,11.73
2023-04-07T04:46:26.280Z,14.43
2023-04-07T04:48:58.002Z,11.60
2023-04-07T04:51:30.964Z,15.48
2023-04-07T04:54:07.513Z,11.45
2023-04-07T04:56:37.099Z,13.82
2023-04-07T04:59:07.187Z,13.55
2023-04-07T05:01:55.666Z,13.95
2023-04-07T05:04:25.096Z,13.45
2023-04-07T05:07:02.705Z,12.68
2023-04-07T05:09:35.390Z,12.45
2023-04-07T05:12:05.831Z,15.07
2023-04-07T05:14:40.569Z,11.35
2023-04-07T05:17:11.188Z,12.70
2023-04-07T05:19:40.795Z,13.45
2023-04-07T05:22:17.037Z,12.15
2023-04-07T05:24:50.916Z,17.50
2023-04-07T05:27:22.894Z,12.85
2023-04-07T05:29:57.163Z,13.63
2023-04-07T05:32:33.741Z,8.88
2023-04-07T05:35:10.632Z,14.98
2023-04-07T05:37:44.263Z,10.27
2023-04-07T05:40:15.691Z,11.10
2023-04-07T05:42:46.106Z,12.68
2023-04-07T05:45:16.150Z,16.13
2023-04-07T05:47:50.668Z,16.50
2023-04-07T05:52:57.141Z,13.98
2023-04-07T05:55:31.171Z,23.55
2023-04-07T05:58:01.302Z,17.38
2023-04-07T06:00:32.900Z,15.48
2023-04-07T06:03:09.044Z,15.93
2023-04-07T06:05:50.166Z,14.95
2023-04-07T06:08:22.378Z,12.35
2023-04-07T06:10:52.897Z,11.32
2023-04-07T06:13:22.028Z,15.07
2023-04-07T06:15:51.210Z,13.15
2023-04-07T06:18:20.262Z,16.15
2023-04-07T06:20:49.533Z,15.80
2023-04-07T06:23:18.597Z,14.50
2023-04-07T06:25:52.179Z,13.45
2023-04-07T06:28:22.654Z,13.95
2023-04-07T06:30:51.875Z,13.27
2023-04-07T06:33:25.589Z,19.38
2023-04-07T06:35:54.752Z,15.30
2023-04-07T06:38:23.923Z,13.75
2023-04-07T06:40:55.466Z,13.65
2023-04-07T06:43:26.172Z,12.65
2023-04-07T06:46:03.894Z,10.18
2023-04-07T06:48:33.069Z,10.00
2023-04-07T06:51:02.086Z,11.52
2023-04-07T06:53:31.132Z,11.93
2023-04-07T06:56:08.178Z,11.35
2023-04-07T07:01:08.301Z,11.05
2023-04-07T07:03:37.360Z,11.85
2023-04-07T07:06:06.825Z,11.30
2023-04-07T07:08:35.860Z,14.55
2023-04-07T07:11:05.500Z,10.90
2023-04-07T07:13:34.552Z,14.77
2023-04-07T07:16:05.467Z,15.07
2023-04-07T07:18:34.588Z,11.65
2023-04-07T07:21:03.561Z,10.18
2023-04-07T07:23:32.795Z,11.65
2023-04-07T07:26:01.877Z,11.60
2023-04-07T07:28:33.557Z,10.02
2023-04-07T07:31:10.231Z,12.90
2023-04-07T07:33:40.562Z,13.65
2023-04-07T07:36:10.318Z,12.60
2023-04-07T07:38:40.192Z,11.98
2023-04-07T07:41:09.485Z,10.85
2023-04-07T07:43:39.633Z,11.15
2023-04-07T07:46:10.094Z,10.18
2023-04-07T07:48:39.303Z,13.35
2023-04-07T07:51:08.335Z,11.90
2023-04-07T07:53:37.426Z,10.20
2023-04-07T07:56:06.608Z,10.02
2023-04-07T07:58:37.471Z,13.25
2023-04-07T08:01:06.598Z,10.98
2023-04-07T08:03:37.538Z,12.85
2023-04-07T08:06:09.444Z,13.77
2023-04-07T08:08:38.471Z,11.77
2023-04-07T08:11:10.125Z,11.02
2023-04-07T08:13:39.256Z,10.35
2023-04-07T08:16:08.809Z,12.45
2023-04-07T08:18:41.300Z,11.38
2023-04-07T08:21:10.453Z,10.88
2023-04-07T08:23:39.574Z,15.30
2023-04-07T08:26:10.870Z,9.45
2023-04-07T08:28:40.429Z,11.13
2023-04-07T08:31:09.560Z,11.63
2023-04-07T08:33:40.385Z,15.38
2023-04-07T08:36:09.583Z,11.45
2023-04-07T08:38:41.419Z,16.90
2023-04-07T08:41:18.806Z,16.75
2023-04-07T08:46:22.772Z,12.27
2023-04-07T08:48:54.085Z,15.73
2023-04-07T08:51:30.500Z,13.65
2023-04-07T08:54:07.385Z,11.73
2023-04-07T08:56:38.646Z,10.88
2023-04-07T08:59:13.932Z,10.32
2023-04-07T09:01:43.309Z,12.98
2023-04-07T09:04:14.332Z,12.80
2023-04-07T09:06:43.452Z,12.77
2023-04-07T09:09:13.455Z,18.48
2023-04-07T09:11:44.018Z,18.80
2023-04-07T09:14:13.714Z,12.80
2023-04-07T09:16:43.628Z,16.23
2023-04-07T09:19:14.198Z,12.13
2023-04-07T09:21:51.352Z,12.70
2023-04-07T09:24:26.116Z,16.52
2023-04-07T09:27:11.473Z,14.95
2023-04-07T09:29:42.134Z,16.25
2023-04-07T09:32:12.359Z,13.98
2023-04-07T09:34:43.238Z,10.15
2023-04-07T09:37:24.120Z,12.65
2023-04-07T09:39:54.653Z,11.13
2023-04-07T09:42:23.718Z,13.07
2023-04-07T09:44:52.980Z,11.07
2023-04-07T09:47:30.367Z,12.90
2023-04-07T09:52:53.592Z,10.65
2023-04-07T09:55:23.748Z,11.27
2023-04-07T09:57:55.368Z,14.63
2023-04-07T10:00:25.249Z,10.38
2023-04-07T10:02:55.301Z,10.48
2023-04-07T10:05:26.516Z,15.23
2023-04-07T10:07:55.704Z,12.65
2023-04-07T10:10:25.523Z,9.65
2023-04-07T10:12:57.005Z,10.43
2023-04-07T10:15:26.734Z,11.15
2023-04-07T10:17:57.886Z,12.30
2023-04-07T10:20:29.928Z,10.23
2023-04-07T10:23:14.625Z,11.98
2023-04-07T10:25:45.965Z,17.33
2023-04-07T10:28:18.475Z,10.90
2023-04-07T10:30:50.623Z,11.85
2023-04-07T10:33:20.188Z,12.10
2023-04-07T10:36:08.472Z,10.90
2023-04-07T10:38:37.566Z,12.07
2023-04-07T10:41:35.391Z,12.30
2023-04-07T10:44:07.389Z,19.48
2023-04-07T10:47:07.114Z,11.55
2023-04-07T10:49:37.998Z,10.65
2023-04-07T10:52:30.167Z,11.98
2023-04-07T10:55:32.820Z,10.93
2023-04-07T10:58:22.876Z,10.55
2023-04-07T11:01:23.301Z,13.15
2023-04-07T11:04:01.218Z,12.15
2023-04-07T11:06:31.593Z,13.13
2023-04-07T11:09:02.125Z,12.57
2023-04-07T11:11:42.442Z,8.80
2023-04-07T11:14:11.780Z,10.60
2023-04-07T11:16:45.845Z,12.73
2023-04-07T11:19:15.171Z,10.68
2023-04-07T11:21:44.240Z,10.93
2023-04-07T11:24:33.986Z,11.60
2023-04-07T11:27:03.120Z,11.57
2023-04-07T11:29:34.832Z,10.57
2023-04-07T11:32:05.580Z,9.38
2023-04-07T11:34:36.865Z,11.63
2023-04-07T11:37:21.077Z,11.93
2023-04-07T11:39:54.893Z,12.52
2023-04-07T11:42:34.596Z,9.95
2023-04-07T11:45:05.077Z,12.60
2023-04-07T11:47:37.210Z,11.23
2023-04-07T11:50:12.119Z,10.65
2023-04-07T11:52:43.890Z,11.00
2023-04-07T11:55:24.472Z,15.57
2023-04-07T11:57:53.878Z,14.98
2023-04-07T12:00:24.987Z,12.73
2023-04-07T12:02:56.801Z,10.60
2023-04-07T12:05:28.196Z,14.80
2023-04-07T12:07:57.988Z,13.20
2023-04-07T12:10:28.874Z,11.07
2023-04-07T12:12:59.412Z,11.38
2023-04-07T12:15:28.924Z,11.98
2023-04-07T12:17:58.200Z,12.05
2023-04-07T12:20:28.474Z,9.63
2023-04-07T12:22:57.944Z,9.98
2023-04-07T12:25:28.662Z,10.95
2023-04-07T12:27:57.652Z,13.43
2023-04-07T12:30:26.697Z,14.65
2023-04-07T12:32:55.837Z,10.30
2023-04-07T12:35:25.221Z,10.68
2023-04-07T12:37:54.685Z,12.52
2023-04-07T12:40:23.848Z,11.70
2023-04-07T12:42:54.213Z,14.73
2023-04-07T12:45:23.366Z,11.90
2023-04-07T12:47:52.448Z,11.07
2023-04-07T12:50:21.477Z,13.77
2023-04-07T12:52:51.303Z,13.65
2023-04-07T12:55:20.835Z,12.25
2023-04-07T12:57:49.823Z,12.90
2023-04-07T13:00:20.420Z,11.60
2023-04-07T13:02:50.925Z,11.80
2023-04-07T13:05:20.165Z,11.90
2023-04-07T13:07:49.897Z,10.88
2023-04-07T13:10:19.399Z,10.95
2023-04-07T13:12:48.705Z,13.85
2023-04-07T13:15:19.277Z,12.80
2023-04-07T13:17:48.654Z,11.75
2023-04-07T13:20:20.175Z,14.82
2023-04-07T13:23:02.719Z,10.00
2023-04-07T13:25:36.523Z,12.38
2023-04-07T13:28:06.044Z,12.10
2023-04-07T13:30:36.506Z,14.93
2023-04-07T13:33:05.894Z,16.25
2023-04-07T13:35:36.113Z,14.07
2023-04-07T13:38:05.845Z,13.18
2023-04-07T13:40:34.957Z,11.82
2023-04-07T13:43:04.216Z,15.60
2023-04-07T13:45:33.794Z,12.20
2023-04-07T13:48:04.455Z,12.50
2023-04-07T13:50:37.175Z,14.77
2023-04-07T13:53:12.618Z,17.48
2023-04-07T13:55:42.104Z,18.55
2023-04-07T13:58:11.211Z,15.00
2023-04-07T14:00:40.443Z,18.20
2023-04-07T14:03:11.043Z,15.23
2023-04-07T14:05:40.402Z,16.08
2023-04-07T14:08:09.479Z,16.48
2023-04-07T14:10:42.151Z,13.15
2023-04-07T14:13:12.827Z,19.42
2023-04-07T14:15:41.929Z,14.93
2023-04-07T14:18:12.452Z,16.98
2023-04-07T14:20:41.604Z,14.98
2023-04-07T14:23:10.779Z,18.08
2023-04-07T14:25:39.872Z,18.15
2023-04-07T14:28:09.626Z,19.10
2023-04-07T14:30:39.087Z,22.95
2023-04-07T14:33:08.268Z,23.08
2023-04-07T14:35:39.593Z,21.52
2023-04-07T14:38:08.601Z,18.40
2023-04-07T14:40:37.752Z,21.60
2023-04-07T14:43:07.916Z,21.00
2023-04-07T14:45:37.488Z,18.77
2023-04-07T14:48:10.343Z,23.77
2023-04-07T14:50:41.326Z,23.90
2023-04-07T14:53:10.460Z,23.55
2023-04-07T14:55:41.622Z,30.05
2023-04-07T14:58:11.035Z,23.13
2023-04-07T15:00:40.146Z,25.75
2023-04-07T15:03:09.510Z,21.60
2023-04-07T15:05:40.071Z,24.02
2023-04-07T15:08:09.179Z,21.25
2023-04-07T15:10:40.322Z,21.67
2023-04-07T15:13:09.455Z,19.75
2023-04-07T15:15:38.593Z,21.13
2023-04-07T15:18:07.793Z,21.23
2023-04-07T15:20:36.836Z,21.08
2023-04-07T15:23:08.202Z,19.85
2023-04-07T15:25:37.237Z,23.23
2023-04-07T15:28:06.862Z,23.95
2023-04-07T15:30:37.147Z,20.40
2023-04-07T15:33:06.589Z,22.58
2023-04-07T15:35:36.492Z,21.38
2023-04-07T15:38:07.097Z,20.02
2023-04-07T15:40:37.710Z,20.67
2023-04-07T15:43:10.501Z,22.17
2023-04-07T15:45:44.179Z,21.73
2023-04-07T15:48:16.272Z,21.35
2023-04-07T15:50:45.533Z,33.70
2023-04-07T15:53:15.953Z,21.10
2023-04-07T15:55:45.614Z,23.20
2023-04-07T15:58:14.697Z,22.70
2023-04-07T16:00:44.734Z,23.00
2023-04-07T16:03:13.948Z,23.02
2023-04-07T16:05:43.386Z,18.92
2023-04-07T16:08:13.814Z,20.02
2023-04-07T16:10:44.530Z,24.23
2023-04-07T16:13:13.790Z,18.65
2023-04-07T16:15:43.718Z,19.70
2023-04-07T16:18:13.241Z,21.70
2023-04-07T16:20:42.494Z,21.42
2023-04-07T16:23:12.591Z,22.38
2023-04-07T16:25:43.222Z,23.33
2023-04-07T16:28:14.177Z,24.67
2023-04-07T16:30:44.212Z,23.65
2023-04-07T16:33:13.410Z,22.33
2023-04-07T16:35:42.850Z,25.90
2023-04-07T16:38:11.938Z,20.55
2023-04-07T16:40:42.742Z,22.92
2023-04-07T16:43:17.639Z,24.30
2023-04-07T16:45:52.271Z,21.65
2023-04-07T16:48:21.524Z,25.92
2023-04-07T16:50:52.199Z,23.05
2023-04-07T16:53:25.933Z,25.25
2023-04-07T16:55:55.101Z,25.75
2023-04-07T16:58:27.652Z,26.77
2023-04-07T17:00:56.781Z,19.45
2023-04-07T17:03:28.756Z,22.83
2023-04-07T17:06:03.475Z,22.33
2023-04-07T17:08:32.812Z,25.05
2023-04-07T17:11:01.855Z,22.50
2023-04-07T17:13:32.438Z,21.50
2023-04-07T17:16:03.990Z,18.20
2023-04-07T17:18:34.023Z,21.73
2023-04-07T17:21:03.163Z,28.98
2023-04-07T17:23:32.349Z,23.02
2023-04-07T17:26:01.561Z,18.30
2023-04-07T17:28:32.243Z,22.40
2023-04-07T17:31:02.925Z,19.52
2023-04-07T17:33:32.323Z,20.80
2023-04-07T17:36:03.666Z,27.27
2023-04-07T17:38:34.083Z,23.30
2023-04-07T17:41:03.310Z,18.13
2023-04-07T17:43:33.794Z,27.58
2023-04-07T17:46:04.742Z,22.65
2023-04-07T17:48:34.369Z,23.77
2023-04-07T17:51:03.434Z,24.15
2023-04-07T17:53:33.742Z,20.17
2023-04-07T17:56:02.759Z,20.13
2023-04-07T17:58:33.334Z,22.30
2023-04-07T18:01:02.738Z,23.90
2023-04-07T18:03:32.093Z,21.40
2023-04-07T18:06:01.262Z,23.20
2023-04-07T18:08:30.762Z,26.23
2023-04-07T18:10:59.832Z,27.20
2023-04-07T18:13:28.878Z,33.55
2023-04-07T18:15:59.687Z,28.98
2023-04-07T18:18:28.790Z,29.42
2023-04-07T18:20:57.812Z,26.33
2023-04-07T18:23:27.033Z,29.58
2023-04-07T18:25:56.095Z,22.67
2023-04-07T18:28:25.886Z,24.08
2023-04-07T18:31:03.810Z,28.30
2023-04-07T18:33:34.254Z,27.55
2023-04-07T18:36:07.867Z,27.40
2023-04-07T18:38:38.245Z,24.73
2023-04-07T18:41:08.701Z,28.92
2023-04-07T18:43:39.421Z,24.90
2023-04-07T18:46:10.913Z,25.58
2023-04-07T18:48:41.136Z,31.70
2023-04-07T18:51:12.823Z,28.08
2023-04-07T18:53:42.130Z,25.38
2023-04-07T18:56:11.503Z,30.98
2023-04-07T18:58:45.000Z,27.92
2023-04-07T19:01:15.858Z,27.35
2023-04-07T19:03:45.915Z,29.15
2023-04-07T19:06:15.731Z,28.05
2023-04-07T19:08:45.248Z,28.70
2023-04-07T19:11:14.598Z,29.98
2023-04-07T19:13:43.893Z,25.50
2023-04-07T19:16:13.267Z,31.83
2023-04-07T19:18:44.097Z,26.33
2023-04-07T19:21:13.737Z,29.35
2023-04-07T19:23:42.939Z,25.02
2023-04-07T19:26:13.094Z,28.05
2023-04-07T19:28:42.448Z,29.25
2023-04-07T19:31:11.973Z,29.02
2023-04-07T19:33:41.452Z,26.60
2023-04-07T19:36:12.388Z,27.65
2023-04-07T19:38:41.548Z,27.60
2023-04-07T19:41:11.135Z,28.42
2023-04-07T19:43:40.337Z,28.67
2023-04-07T19:46:09.501Z,29.38
2023-04-07T19:48:38.602Z,33.35
2023-04-07T19:51:08.318Z,32.60
2023-04-07T19:53:38.918Z,33.08
2023-04-07T19:56:08.452Z,30.58
2023-04-07T19:58:40.185Z,26.30
2023-04-07T20:01:17.845Z,29.98
2023-04-07T20:03:47.372Z,29.98
2023-04-07T20:06:17.231Z,29.67
2023-04-07T20:08:48.541Z,30.40
2023-04-07T20:11:17.928Z,31.10
2023-04-07T20:13:49.549Z,32.30
2023-04-07T20:16:18.636Z,29.45
2023-04-07T20:18:48.118Z,28.77
2023-04-07T20:21:17.450Z,26.52
2023-04-07T20:23:47.850Z,27.73
2023-04-07T20:26:17.825Z,32.03
2023-04-07T20:28:47.219Z,32.50
2023-04-07T20:31:16.829Z,35.67
2023-04-07T20:33:46.032Z,33.28
2023-04-07T20:36:15.044Z,29.33
2023-04-07T20:38:44.749Z,32.72
2023-04-07T20:41:16.713Z,31.23
2023-04-07T20:43:45.984Z,26.83
2023-04-07T20:46:15.188Z,30.27
2023-04-07T20:48:44.622Z,29.80
2023-04-07T20:51:14.382Z,28.27
2023-04-07T20:53:44.120Z,28.20
2023-04-07T20:56:14.585Z,31.70
2023-04-07T20:58:43.659Z,29.70
2023-04-07T21:01:12.740Z,29.75
2023-04-07T21:03:44.700Z,32.63
2023-04-07T21:06:16.775Z,35.13
2023-04-07T21:08:46.235Z,29.85
2023-04-07T21:11:17.095Z,37.08
2023-04-07T21:13:46.284Z,31.88
2023-04-07T21:16:15.523Z,30.67
2023-04-07T21:18:44.551Z,34.03
2023-04-07T21:21:13.696Z,38.58
2023-04-07T21:23:42.842Z,35.15
2023-04-07T21:26:12.032Z,33.50
2023-04-07T21:28:42.492Z,40.95
2023-04-07T21:31:11.839Z,35.35
2023-04-07T21:33:40.862Z,37.60
2023-04-07T21:36:09.966Z,35.13
2023-04-07T21:38:41.859Z,32.20
2023-04-07T21:41:11.542Z,32.47
2023-04-07T21:43:41.936Z,32.47
2023-04-07T21:46:11.068Z,34.13
2023-04-07T21:48:40.123Z,36.05
2023-04-07T21:51:09.354Z,36.42
2023-04-07T21:53:41.629Z,35.80
2023-04-07T21:56:10.842Z,39.47
2023-04-07T21:58:41.820Z,37.63
2023-04-07T22:01:12.283Z,31.70
2023-04-07T22:03:41.699Z,39.35
2023-04-07T22:06:10.767Z,39.17
2023-04-07T22:08:42.543Z,41.05
2023-04-07T22:11:15.587Z,39.33
2023-04-07T22:13:44.642Z,36.17
2023-04-07T22:16:16.416Z,40.00
2023-04-07T22:18:45.926Z,35.15
2023-04-07T22:21:15.689Z,32.60
2023-04-07T22:23:45.578Z,32.25
2023-04-07T22:26:14.970Z,36.28
2023-04-07T22:28:43.999Z,35.97
2023-04-07T22:31:14.517Z,37.35
2023-04-07T22:33:43.823Z,37.58
2023-04-07T22:36:12.860Z,41.95
2023-04-07T22:38:41.860Z,35.42
2023-04-07T22:41:10.921Z,34.22
2023-04-07T22:43:39.969Z,34.53
2023-04-07T22:46:08.946Z,35.25
2023-04-07T22:48:39.392Z,37.60
2023-04-07T22:51:08.723Z,35.53
2023-04-07T22:53:37.791Z,31.63
2023-04-07T22:56:07.992Z,33.17
2023-04-07T22:58:37.106Z,35.05
2023-04-07T23:01:06.492Z,38.97
2023-04-07T23:03:35.826Z,40.95
2023-04-07T23:06:06.469Z,42.05
2023-04-07T23:08:35.683Z,40.35
2023-04-07T23:11:04.679Z,38.17
2023-04-07T23:13:33.790Z,41.10
2023-04-07T23:16:03.873Z,39.55
2023-04-07T23:18:33.165Z,40.45
2023-04-07T23:21:02.279Z,37.97
2023-04-07T23:23:32.904Z,37.65
2023-04-07T23:26:01.980Z,36.95
2023-04-07T23:28:30.968Z,36.35
2023-04-07T23:30:59.989Z,39.35
2023-04-07T23:33:29.051Z,34.10
2023-04-07T23:35:58.392Z,37.58
2023-04-07T23:38:27.588Z,34.63
2023-04-07T23:40:58.020Z,38.50
2023-04-07T23:43:27.234Z,34.95
2023-04-07T23:45:56.701Z,36.65
2023-04-07T23:48:26.517Z,40.38
2023-04-07T23:50:56.052Z,37.30
2023-04-07T23:53:25.056Z,36.17
2023-04-07T23:55:54.158Z,33.88
2023-04-07T23:58:24.579Z,32.67
